createdAt,value
2022-10-22T00:01:13.418Z,8.65
2022-10-22T00:03:42.046Z,8.20
2022-10-22T00:06:10.184Z,8.35
2022-10-22T00:08:38.677Z,7.63
2022-10-22T00:11:12.622Z,8.32
2022-10-22T00:13:41.332Z,8.50
2022-10-22T00:16:10.483Z,8.32
2022-10-22T00:18:40.514Z,9.27
2022-10-22T00:21:09.173Z,7.97
2022-10-22T00:23:39.929Z,8.95
2022-10-22T00:26:08.055Z,8.80
2022-10-22T00:28:36.471Z,9.00
2022-10-22T00:31:05.065Z,9.15
2022-10-22T00:33:33.551Z,8.80
2022-10-22T00:36:01.748Z,9.05
2022-10-22T00:38:29.956Z,9.30
2022-10-22T00:40:58.144Z,9.82
2022-10-22T00:43:27.290Z,8.35
2022-10-22T00:45:55.637Z,9.45
2022-10-22T00:48:30.010Z,10.43
2022-10-22T00:51:06.364Z,9.45
2022-10-22T00:53:56.131Z,9.80
2022-10-22T00:56:25.358Z,9.20
2022-10-22T00:59:00.123Z,10.15
2022-10-22T01:01:30.900Z,10.20
2022-10-22T01:04:01.416Z,10.43
2022-10-22T01:06:32.877Z,9.98
2022-10-22T01:09:26.833Z,11.15
2022-10-22T01:17:36.090Z,10.60
2022-10-22T01:20:31.107Z,11.95
2022-10-22T01:23:28.303Z,11.27
2022-10-22T01:26:05.239Z,11.88
2022-10-22T01:28:51.335Z,11.68
2022-10-22T01:31:22.968Z,12.40
2022-10-22T01:33:53.182Z,12.07
2022-10-22T01:36:22.224Z,12.68
2022-10-22T01:38:52.180Z,12.27
2022-10-22T01:41:20.517Z,12.05
2022-10-22T01:43:49.832Z,12.05
2022-10-22T01:46:19.387Z,12.85
2022-10-22T01:48:59.692Z,12.05
2022-10-22T01:51:53.623Z,11.13
2022-10-22T01:57:10.823Z,11.98
2022-10-22T01:59:38.879Z,11.43
2022-10-22T02:02:25.804Z,12.20
2022-10-22T02:05:09.640Z,12.13
2022-10-22T02:07:43.818Z,11.40
2022-10-22T02:10:13.384Z,10.68
2022-10-22T02:12:43.952Z,11.75
2022-10-22T02:15:17.025Z,11.45
2022-10-22T02:17:47.220Z,11.13
2022-10-22T02:20:23.087Z,11.05
2022-10-22T02:22:52.283Z,10.88
2022-10-22T02:25:25.005Z,12.48
2022-10-22T02:28:01.550Z,9.90
2022-10-22T02:30:31.545Z,10.35
2022-10-22T02:33:14.692Z,11.38
2022-10-22T02:35:43.758Z,9.93
2022-10-22T02:38:15.179Z,10.20
2022-10-22T02:40:43.368Z,10.63
2022-10-22T02:43:11.629Z,10.15
2022-10-22T02:45:39.919Z,9.50
2022-10-22T02:48:08.230Z,9.80
2022-10-22T02:50:36.775Z,10.40
2022-10-22T02:53:04.914Z,10.60
2022-10-22T02:55:33.139Z,10.18
2022-10-22T02:58:01.930Z,9.93
2022-10-22T03:00:30.151Z,10.25
2022-10-22T03:02:58.303Z,9.52
2022-10-22T03:05:26.400Z,10.90
2022-10-22T03:07:54.527Z,10.80
2022-10-22T03:10:22.734Z,9.68
2022-10-22T03:12:50.867Z,9.45
2022-10-22T03:15:19.087Z,9.90
2022-10-22T03:17:47.314Z,10.20
2022-10-22T03:20:15.879Z,9.57
2022-10-22T03:22:45.166Z,9.63
2022-10-22T03:25:18.954Z,9.55
2022-10-22T03:27:47.742Z,10.25
2022-10-22T03:30:15.873Z,9.73
2022-10-22T03:32:44.064Z,9.20
2022-10-22T03:35:13.359Z,9.57
2022-10-22T03:37:42.521Z,9.15
2022-10-22T03:40:11.789Z,8.85
2022-10-22T03:42:41.411Z,9.02
2022-10-22T03:45:10.201Z,9.02
2022-10-22T03:47:38.707Z,8.68
2022-10-22T03:50:07.642Z,9.45
2022-10-22T03:52:39.835Z,8.80
2022-10-22T03:55:09.149Z,9.00
2022-10-22T03:57:37.796Z,9.32
2022-10-22T04:00:07.379Z,9.05
2022-10-22T04:02:36.264Z,7.93
2022-10-22T04:05:04.598Z,8.88
2022-10-22T04:07:32.802Z,10.93
2022-10-22T04:10:00.955Z,8.68
2022-10-22T04:12:29.087Z,8.60
2022-10-22T04:14:57.219Z,9.32
2022-10-22T04:17:25.446Z,8.32
2022-10-22T04:19:53.580Z,8.15
2022-10-22T04:22:21.657Z,9.10
2022-10-22T04:27:22.831Z,8.93
2022-10-22T04:29:51.071Z,9.13
2022-10-22T04:32:19.208Z,9.32
2022-10-22T04:34:47.387Z,9.98
2022-10-22T04:37:15.469Z,10.20
2022-10-22T04:39:43.634Z,10.25
2022-10-22T04:42:12.644Z,9.98
2022-10-22T04:44:40.765Z,10.07
2022-10-22T04:47:08.922Z,9.60
2022-10-22T04:49:40.084Z,9.70
2022-10-22T04:52:08.259Z,10.10
2022-10-22T04:54:36.865Z,9.82
2022-10-22T04:57:05.040Z,10.18
2022-10-22T04:59:33.179Z,11.27
2022-10-22T05:02:01.336Z,9.25
2022-10-22T05:04:29.495Z,10.07
2022-10-22T05:06:57.728Z,9.95
2022-10-22T05:09:28.736Z,11.52
2022-10-22T05:11:56.898Z,9.30
2022-10-22T05:14:26.179Z,9.32
2022-10-22T05:16:54.939Z,10.23
2022-10-22T05:19:31.383Z,10.02
2022-10-22T05:22:01.571Z,9.07
2022-10-22T05:24:32.157Z,9.48
2022-10-22T05:27:03.330Z,9.52
2022-10-22T05:29:31.443Z,10.05
2022-10-22T05:31:59.560Z,10.05
2022-10-22T05:34:27.661Z,10.02
2022-10-22T05:36:55.776Z,10.18
2022-10-22T05:39:23.989Z,10.50
2022-10-22T05:41:52.106Z,8.93
2022-10-22T05:44:20.434Z,9.35
2022-10-22T05:46:48.633Z,8.50
2022-10-22T05:49:19.698Z,9.57
2022-10-22T05:51:47.743Z,8.50
2022-10-22T05:54:20.661Z,9.10
2022-10-22T05:56:48.909Z,8.60
2022-10-22T05:59:17.071Z,9.63
2022-10-22T06:01:45.383Z,9.18
2022-10-22T06:04:14.152Z,9.52
2022-10-22T06:06:48.845Z,10.75
2022-10-22T06:12:10.966Z,9.82
2022-10-22T06:14:39.140Z,9.40
2022-10-22T06:17:07.368Z,8.73
2022-10-22T06:19:35.663Z,8.60
2022-10-22T06:22:04.746Z,8.63
2022-10-22T06:24:32.897Z,8.35
2022-10-22T06:27:01.107Z,8.95
2022-10-22T06:29:29.300Z,8.82
2022-10-22T06:31:57.413Z,8.65
2022-10-22T06:34:25.654Z,8.73
2022-10-22T06:36:53.774Z,8.90
2022-10-22T06:39:21.850Z,8.80
2022-10-22T06:41:50.006Z,8.63
2022-10-22T06:44:20.006Z,8.73
2022-10-22T06:46:52.462Z,9.32
2022-10-22T06:49:21.818Z,8.43
2022-10-22T06:51:54.089Z,9.27
2022-10-22T06:54:23.048Z,7.70
2022-10-22T06:56:51.368Z,8.18
2022-10-22T06:59:19.517Z,8.95
2022-10-22T07:01:47.801Z,8.68
2022-10-22T07:04:16.408Z,8.10
2022-10-22T07:06:44.774Z,9.13
2022-10-22T07:09:13.008Z,8.15
2022-10-22T07:11:44.590Z,7.93
2022-10-22T07:14:14.046Z,7.47
2022-10-22T07:16:43.178Z,7.65
2022-10-22T07:19:16.311Z,7.88
2022-10-22T07:21:44.670Z,7.80
2022-10-22T07:24:12.895Z,7.72
2022-10-22T07:26:41.061Z,8.30
2022-10-22T07:29:10.146Z,8.00
2022-10-22T07:31:38.590Z,7.95
2022-10-22T07:34:06.728Z,7.90
2022-10-22T07:36:37.729Z,7.47
2022-10-22T07:39:06.548Z,7.55
2022-10-22T07:41:34.767Z,7.65
2022-10-22T07:44:03.067Z,7.40
2022-10-22T07:46:31.680Z,7.53
2022-10-22T07:48:59.838Z,9.45
2022-10-22T07:51:28.019Z,7.13
2022-10-22T07:53:56.181Z,7.45
2022-10-22T07:56:24.411Z,7.05
2022-10-22T07:58:53.375Z,7.10
2022-10-22T08:01:21.582Z,7.07
2022-10-22T08:03:49.814Z,7.45
2022-10-22T08:06:18.000Z,7.38
2022-10-22T08:08:46.493Z,7.82
2022-10-22T08:11:16.016Z,7.75
2022-10-22T08:13:45.574Z,7.82
2022-10-22T08:16:14.926Z,6.68
2022-10-22T08:18:43.475Z,6.85
2022-10-22T08:21:12.525Z,7.40
2022-10-22T08:23:40.909Z,6.85
2022-10-22T08:26:09.717Z,7.10
2022-10-22T08:28:37.983Z,6.95
2022-10-22T08:31:08.313Z,8.57
2022-10-22T08:33:39.013Z,8.52
2022-10-22T08:36:07.840Z,10.23
2022-10-22T08:38:36.407Z,9.13
2022-10-22T08:41:12.188Z,8.27
2022-10-22T08:43:55.264Z,9.70
2022-10-22T08:46:26.535Z,8.35
2022-10-22T08:48:57.831Z,8.68
2022-10-22T08:51:31.232Z,9.50
2022-10-22T08:57:09.008Z,8.57
2022-10-22T08:59:56.274Z,8.70
2022-10-22T09:02:27.487Z,8.77
2022-10-22T09:05:15.791Z,9.07
2022-10-22T09:07:48.647Z,8.65
2022-10-22T09:10:20.090Z,9.95
2022-10-22T09:12:48.923Z,9.38
2022-10-22T09:15:20.602Z,9.15
2022-10-22T09:18:09.649Z,8.52
2022-10-22T09:20:50.349Z,9.32
2022-10-22T09:23:26.909Z,9.27
2022-10-22T09:25:57.185Z,9.25
2022-10-22T09:28:25.501Z,9.63
2022-10-22T09:30:53.839Z,9.43
2022-10-22T09:33:32.868Z,8.98
2022-10-22T09:36:04.526Z,8.23
2022-10-22T09:38:40.154Z,9.10
2022-10-22T09:41:10.856Z,9.98
2022-10-22T09:43:39.083Z,8.68
2022-10-22T09:46:15.445Z,8.05
2022-10-22T09:49:03.409Z,8.73
2022-10-22T09:51:49.031Z,9.25
2022-10-22T09:54:20.931Z,9.38
2022-10-22T09:57:05.397Z,10.32
2022-10-22T09:59:37.475Z,8.77
2022-10-22T10:02:38.387Z,10.68
2022-10-22T10:05:08.362Z,9.00
2022-10-22T10:07:37.094Z,9.50
2022-10-22T10:10:21.351Z,8.88
2022-10-22T10:13:02.180Z,9.18
2022-10-22T10:15:36.680Z,9.73
2022-10-22T10:18:12.796Z,9.90
2022-10-22T10:20:54.084Z,8.45
2022-10-22T10:23:27.964Z,9.38
2022-10-22T10:26:09.867Z,9.38
2022-10-22T10:28:44.647Z,9.40
2022-10-22T10:31:33.778Z,9.77
2022-10-22T10:34:22.339Z,9.32
2022-10-22T10:37:08.997Z,9.07
2022-10-22T10:40:18.923Z,9.15
2022-10-22T10:42:57.957Z,9.15
2022-10-22T10:45:46.338Z,8.57
2022-10-22T10:48:35.424Z,9.93
2022-10-22T10:51:03.510Z,9.38
2022-10-22T10:53:37.351Z,8.95
2022-10-22T10:56:30.376Z,9.43
2022-10-22T10:59:27.077Z,9.43
2022-10-22T11:02:18.794Z,7.68
2022-10-22T11:05:05.656Z,6.97
2022-10-22T11:07:47.948Z,7.70
2022-10-22T11:10:47.295Z,7.95
2022-10-22T11:13:36.795Z,9.07
2022-10-22T11:16:31.395Z,8.68
2022-10-22T11:19:51.512Z,10.25
2022-10-22T11:22:28.808Z,10.07
2022-10-22T11:25:40.623Z,10.13
2022-10-22T11:28:33.830Z,9.75
2022-10-22T11:31:25.404Z,10.88
2022-10-22T11:34:34.824Z,9.98
2022-10-22T11:37:04.920Z,10.23
2022-10-22T11:39:45.196Z,9.82
2022-10-22T11:42:23.144Z,9.50
2022-10-22T11:45:15.385Z,10.13
2022-10-22T11:47:58.856Z,10.45
2022-10-22T11:50:47.025Z,11.05
2022-10-22T11:53:15.075Z,9.95
2022-10-22T11:55:48.806Z,9.25
2022-10-22T11:58:39.495Z,10.32
2022-10-22T12:01:10.365Z,8.52
2022-10-22T12:03:44.489Z,7.47
2022-10-22T12:06:15.862Z,5.93
2022-10-22T12:08:54.882Z,5.63
2022-10-22T12:11:47.820Z,5.93
2022-10-22T12:14:51.165Z,4.90
2022-10-22T12:17:21.697Z,5.53
2022-10-22T12:20:12.154Z,5.35
2022-10-22T12:22:47.806Z,7.25
2022-10-22T12:25:35.857Z,4.75
2022-10-22T12:28:04.766Z,3.20
2022-10-22T12:30:37.201Z,1.80
2022-10-22T12:33:08.260Z,1.70
2022-10-22T12:35:46.098Z,1.83
2022-10-22T12:38:17.690Z,1.50
2022-10-22T12:40:48.624Z,2.20
2022-10-22T12:43:23.688Z,1.95
2022-10-22T12:45:52.887Z,2.38
2022-10-22T12:48:42.347Z,2.28
2022-10-22T12:51:17.426Z,2.65
2022-10-22T12:53:54.116Z,2.90
2022-10-22T12:56:33.357Z,2.85
2022-10-22T12:59:18.038Z,3.17
2022-10-22T13:01:48.427Z,2.75
2022-10-22T13:04:26.942Z,2.70
2022-10-22T13:07:15.978Z,3.33
2022-10-22T13:09:59.919Z,3.03
2022-10-22T13:12:36.616Z,3.30
2022-10-22T13:15:27.930Z,3.92
2022-10-22T13:18:21.009Z,3.92
2022-10-22T13:21:03.026Z,5.33
2022-10-22T13:23:33.826Z,4.88
2022-10-22T13:26:05.036Z,5.25
2022-10-22T13:28:33.523Z,4.15
2022-10-22T13:31:14.598Z,4.30
2022-10-22T13:33:45.643Z,4.30
2022-10-22T13:36:15.580Z,3.55
2022-10-22T13:38:44.890Z,3.80
2022-10-22T13:41:27.267Z,3.42
2022-10-22T13:43:55.876Z,4.35
2022-10-22T13:46:25.957Z,3.75
2022-10-22T13:48:58.177Z,3.35
2022-10-22T13:51:37.087Z,2.58
2022-10-22T13:54:18.020Z,3.20
2022-10-22T13:56:46.534Z,3.28
2022-10-22T13:59:16.274Z,2.88
2022-10-22T14:01:46.866Z,3.08
2022-10-22T14:04:15.646Z,3.50
2022-10-22T14:06:43.890Z,2.42
2022-10-22T14:09:15.471Z,2.25
2022-10-22T14:11:44.984Z,2.15
2022-10-22T14:14:17.100Z,1.92
2022-10-22T14:16:45.481Z,1.90
2022-10-22T14:19:17.846Z,2.78
2022-10-22T14:21:46.073Z,1.80
2022-10-22T14:24:14.155Z,2.00
2022-10-22T14:26:42.301Z,2.10
2022-10-22T14:29:11.335Z,2.13
2022-10-22T14:31:42.568Z,1.95
2022-10-22T14:34:12.824Z,1.98
2022-10-22T14:36:43.742Z,1.85
2022-10-22T14:39:13.336Z,2.17
2022-10-22T14:41:42.503Z,1.75
2022-10-22T14:44:13.955Z,2.35
2022-10-22T14:46:44.046Z,1.70
2022-10-22T14:49:12.754Z,2.20
2022-10-22T14:51:40.861Z,2.42
2022-10-22T14:54:09.001Z,2.35
2022-10-22T14:59:11.059Z,2.60
2022-10-22T15:01:39.412Z,3.38
2022-10-22T15:04:08.588Z,2.38
2022-10-22T15:06:37.002Z,2.67
2022-10-22T15:09:07.265Z,3.22
2022-10-22T15:11:35.516Z,3.50
2022-10-22T15:14:03.940Z,3.90
2022-10-22T15:16:32.167Z,2.65
2022-10-22T15:19:00.940Z,2.78
2022-10-22T15:21:29.195Z,2.72
2022-10-22T15:23:57.353Z,3.33
2022-10-22T15:26:27.172Z,2.67
2022-10-22T15:28:56.072Z,2.70
2022-10-22T15:31:47.186Z,3.33
2022-10-22T15:34:20.807Z,3.00
2022-10-22T15:36:52.446Z,2.97
2022-10-22T15:39:20.609Z,3.45
2022-10-22T15:41:49.917Z,2.78
2022-10-22T15:44:21.024Z,2.80
2022-10-22T15:49:28.638Z,3.08
2022-10-22T15:51:56.910Z,3.08
2022-10-22T15:54:29.853Z,3.42
2022-10-22T15:57:00.141Z,3.42
2022-10-22T15:59:29.487Z,3.55
2022-10-22T16:01:57.542Z,3.10
2022-10-22T16:04:25.746Z,3.13
2022-10-22T16:06:55.864Z,4.53
2022-10-22T16:09:26.261Z,4.57
2022-10-22T16:11:55.443Z,5.03
2022-10-22T16:14:24.200Z,5.15
2022-10-22T16:16:54.236Z,5.32
2022-10-22T16:19:23.921Z,5.68
2022-10-22T16:21:54.642Z,4.55
2022-10-22T16:24:23.266Z,4.75
2022-10-22T16:26:53.107Z,5.35
2022-10-22T16:29:21.298Z,5.43
2022-10-22T16:31:49.471Z,5.22
2022-10-22T16:34:17.647Z,5.18
2022-10-22T16:36:46.201Z,4.32
2022-10-22T16:39:14.434Z,5.05
2022-10-22T16:41:44.416Z,3.92
2022-10-22T16:44:13.767Z,3.97
2022-10-22T16:46:42.110Z,4.15
2022-10-22T16:49:12.535Z,4.03
2022-10-22T16:51:40.727Z,5.32
2022-10-22T16:54:12.545Z,4.30
2022-10-22T16:56:41.229Z,4.65
2022-10-22T16:59:12.822Z,4.82
2022-10-22T17:01:41.611Z,3.83
2022-10-22T17:04:10.273Z,6.03
2022-10-22T17:06:40.522Z,4.82
2022-10-22T17:09:09.114Z,4.40
2022-10-22T17:11:40.155Z,3.65
2022-10-22T17:16:38.970Z,3.45
2022-10-22T17:19:10.775Z,4.20
2022-10-22T17:21:38.932Z,4.20
2022-10-22T17:24:07.323Z,4.43
2022-10-22T17:26:37.360Z,3.95
2022-10-22T17:29:05.968Z,4.45
2022-10-22T17:31:37.452Z,4.90
2022-10-22T17:34:10.840Z,4.30
2022-10-22T17:39:19.572Z,4.93
2022-10-22T17:41:47.694Z,4.80
2022-10-22T17:44:17.026Z,5.28
2022-10-22T17:46:45.502Z,4.43
2022-10-22T17:49:18.063Z,4.68
2022-10-22T17:51:46.616Z,6.03
2022-10-22T17:54:16.439Z,4.75
2022-10-22T17:56:44.564Z,4.68
2022-10-22T17:59:15.440Z,5.00
2022-10-22T18:01:45.916Z,4.35
2022-10-22T18:04:17.242Z,3.72
2022-10-22T18:06:47.088Z,4.57
2022-10-22T18:09:18.750Z,4.25
2022-10-22T18:11:49.290Z,3.95
2022-10-22T18:14:18.952Z,4.70
2022-10-22T18:16:48.366Z,5.15
2022-10-22T18:19:20.156Z,5.57
2022-10-22T18:21:48.561Z,5.57
2022-10-22T18:24:18.542Z,5.60
2022-10-22T18:26:46.655Z,5.68
2022-10-22T18:29:17.978Z,5.85
2022-10-22T18:31:46.855Z,7.90
2022-10-22T18:34:17.646Z,5.72
2022-10-22T18:39:17.048Z,4.22
2022-10-22T18:41:47.932Z,4.05
2022-10-22T18:44:16.920Z,4.22
2022-10-22T18:46:45.257Z,4.05
2022-10-22T18:49:18.721Z,4.53
2022-10-22T18:51:52.505Z,5.25
2022-10-22T18:54:24.379Z,4.72
2022-10-22T18:56:55.490Z,4.22
2022-10-22T18:59:27.416Z,4.07
2022-10-22T19:02:00.367Z,3.83
2022-10-22T19:04:33.611Z,3.67
2022-10-22T19:07:01.878Z,4.18
2022-10-22T19:09:30.197Z,3.70
2022-10-22T19:11:58.430Z,3.67
2022-10-22T19:14:27.118Z,4.30
2022-10-22T19:16:55.362Z,3.90
2022-10-22T19:19:24.401Z,3.60
2022-10-22T19:21:59.535Z,3.60
2022-10-22T19:24:27.800Z,3.58
2022-10-22T19:26:55.977Z,4.38
2022-10-22T19:29:24.253Z,4.30
2022-10-22T19:31:52.909Z,4.63
2022-10-22T19:34:21.521Z,4.13
2022-10-22T19:36:51.803Z,4.35
2022-10-22T19:39:20.292Z,4.97
2022-10-22T19:41:48.748Z,6.03
2022-10-22T19:44:18.376Z,4.00
2022-10-22T19:46:56.780Z,4.32
2022-10-22T19:49:26.187Z,4.00
2022-10-22T19:51:54.345Z,3.70
2022-10-22T19:54:23.645Z,4.32
2022-10-22T19:56:52.120Z,4.10
2022-10-22T19:59:22.773Z,4.68
2022-10-22T20:01:50.928Z,4.47
2022-10-22T20:04:19.642Z,3.92
2022-10-22T20:06:47.963Z,5.22
2022-10-22T20:09:16.193Z,4.07
2022-10-22T20:11:44.902Z,5.03
2022-10-22T20:14:14.258Z,4.40
2022-10-22T20:16:42.804Z,4.25
2022-10-22T20:19:15.925Z,4.90
2022-10-22T20:21:45.595Z,5.03
2022-10-22T20:24:16.253Z,4.90
2022-10-22T20:26:46.594Z,5.63
2022-10-22T20:29:15.941Z,5.78
2022-10-22T20:31:44.175Z,6.88
2022-10-22T20:34:12.302Z,6.03
2022-10-22T20:36:41.687Z,6.40
2022-10-22T20:39:14.371Z,6.40
2022-10-22T20:41:42.517Z,7.55
2022-10-22T20:44:16.320Z,6.10
2022-10-22T20:46:45.237Z,6.07
2022-10-22T20:49:17.749Z,5.90
2022-10-22T20:51:46.724Z,6.95
2022-10-22T20:54:15.490Z,6.13
2022-10-22T20:56:44.015Z,5.55
2022-10-22T20:59:12.779Z,5.40
2022-10-22T21:01:46.390Z,6.50
2022-10-22T21:04:15.571Z,6.38
2022-10-22T21:06:44.030Z,6.93
2022-10-22T21:09:14.490Z,6.95
2022-10-22T21:11:43.807Z,6.72
2022-10-22T21:14:30.660Z,6.78
2022-10-22T21:16:59.787Z,7.45
2022-10-22T21:19:28.094Z,6.85
2022-10-22T21:21:56.301Z,7.40
2022-10-22T21:24:26.249Z,7.57
2022-10-22T21:26:54.354Z,7.20
2022-10-22T21:29:22.409Z,6.18
2022-10-22T21:31:50.572Z,6.97
2022-10-22T21:34:18.684Z,6.22
2022-10-22T21:39:15.881Z,7.10
2022-10-22T21:41:45.107Z,6.65
2022-10-22T21:44:16.358Z,7.32
2022-10-22T21:46:44.494Z,7.68
2022-10-22T21:49:14.311Z,6.93
2022-10-22T21:51:46.183Z,6.90
2022-10-22T21:54:14.288Z,7.03
2022-10-22T21:56:43.238Z,7.13
2022-10-22T21:59:12.075Z,6.90
2022-10-22T22:01:40.162Z,6.60
2022-10-22T22:04:08.272Z,7.38
2022-10-22T22:06:36.388Z,6.47
2022-10-22T22:09:05.679Z,6.47
2022-10-22T22:11:37.668Z,8.60
2022-10-22T22:14:05.834Z,6.85
2022-10-22T22:16:34.627Z,7.03
2022-10-22T22:19:06.969Z,6.50
2022-10-22T22:21:36.961Z,6.50
2022-10-22T22:24:05.594Z,6.97
2022-10-22T22:26:33.909Z,6.35
2022-10-22T22:29:02.192Z,7.13
2022-10-22T22:31:32.923Z,6.65
2022-10-22T22:34:11.003Z,6.63
2022-10-22T22:36:41.504Z,7.05
2022-10-22T22:39:13.634Z,6.32
2022-10-22T22:41:42.741Z,6.72
2022-10-22T22:44:11.534Z,6.30
2022-10-22T22:46:40.164Z,6.90
2022-10-22T22:49:08.807Z,5.88
2022-10-22T22:51:36.958Z,6.70
2022-10-22T22:54:05.114Z,6.13
2022-10-22T22:56:34.630Z,6.93
2022-10-22T22:59:04.206Z,6.15
2022-10-22T23:01:37.953Z,6.35
2022-10-22T23:04:11.195Z,6.60
2022-10-22T23:06:42.253Z,6.68
2022-10-22T23:09:12.936Z,7.03
2022-10-22T23:11:42.527Z,6.22
2022-10-22T23:14:16.149Z,6.22
2022-10-22T23:16:47.989Z,6.22
2022-10-22T23:19:19.173Z,6.32
2022-10-22T23:21:52.626Z,6.38
2022-10-22T23:24:28.412Z,6.15
2022-10-22T23:26:59.943Z,6.70
2022-10-22T23:29:31.297Z,6.53
2022-10-22T23:32:04.261Z,6.80
2022-10-22T23:34:32.651Z,7.35
2022-10-22T23:37:03.279Z,6.55
2022-10-22T23:39:31.536Z,6.53
2022-10-22T23:41:59.868Z,6.75
2022-10-22T23:44:28.095Z,6.97
2022-10-22T23:46:56.356Z,7.53
2022-10-22T23:49:24.586Z,6.57
2022-10-22T23:51:52.743Z,7.28
2022-10-22T23:54:20.955Z,6.50
2022-10-22T23:56:49.126Z,5.70
2022-10-22T23:59:17.259Z,6.38
